Etusivu
METAR-TAF:

METAR-TAF

Lentoasemat :

Meierwik

Glücksburg, Saksa

Leveyspiiri: 54-50N, Pituuspiiri: 009-30E, korkeus merenpinnasta: 27 m

Tämänhetkinen sää

Tämä raportti tehtiin 1 tunti ja 0 minuuttia sitten, kello 09.20 UTC
Tuuli 15 kn lännestä
Lämpötila 5°C
Kosteus 93%
Ilmanpaine 1031 hPa

METAR: ETGG 230920Z AUTO 26015KT //// // ////// 05/04 Q1031 ///

Aika: 11:20 (10:20 UTC)


TAF: puuttuu

Säähavainnot ja -ennusteet yli 4000 lentoasemalta (METAR- ja TAF-raportit).

Käytössä olevat sääasemat on merkitty karttaan keltaisilla ja punaisilla pisteillä.

Aseta hiiri pisteen päälle nähdäksesi sääaseman nimen.

Klikkaa sitten nähdäksesi säähavainnot ja -ennusteet.

Kartan vaihtaminen: klikkaa mustalla rastilla varustettuja vihreitä pisteitä, niin voit zoomata sisään; viivalla varustettua vihreää pistettä, niin voit zoomata ulos tai vihreitä nuolia, niin pääset viereisille kartoille.


METAR-TAF: